Time;durP1;ratioP1;P1;durP2;ratioP2;P2;SDS_P1;SDS_P2;PMS_P1;PMS_P2;Temp;Humidity;BMP_temperature;BMP_pressure;BME280_temperature;BME280_humidity;BME280_pressure;Samples;Min_cycle;Max_cycle;Signal;HPM_P1;HPM_P2
2023/04/06 00:00:36;;;;;;;;;;;16.80;65.50;;;;;;5075382;28;1727;-69
2023/04/06 00:03:02;;;;;;;;;;;16.80;65.50;;;;;;5071517;28;1340;-71
2023/04/06 00:05:30;;;;;;;;;;;16.80;65.50;;;;;;5072385;28;1404;-72
2023/04/06 00:07:56;;;;;;;;;;;16.80;65.50;;;;;;5068188;28;1915;-69
2023/04/06 00:10:22;;;;;;;;;;;16.90;65.50;;;;;;5076245;28;1329;-70
2023/04/06 00:12:47;;;;;;;;;;;16.90;65.50;;;;;;5071238;28;1464;-70
2023/04/06 00:15:13;;;;;;;;;;;16.90;65.50;;;;;;5074604;28;1451;-69
2023/04/06 00:17:38;;;;;;;;;;;16.90;65.40;;;;;;5070725;28;1333;-70
2023/04/06 00:20:04;;;;;;;;;;;16.90;65.40;;;;;;5073478;28;1452;-69
2023/04/06 00:22:30;;;;;;;;;;;16.90;65.40;;;;;;5073893;28;1324;-69
2023/04/06 00:24:55;;;;;;;;;;;16.90;65.40;;;;;;5072128;28;1277;-69
2023/04/06 00:27:21;;;;;;;;;;;16.90;65.30;;;;;;5072653;28;1963;-69
2023/04/06 00:29:46;;;;;;;;;;;16.90;65.30;;;;;;5068794;28;1451;-69
2023/04/06 00:32:11;;;;;;;;;;;16.90;65.30;;;;;;5067301;28;1346;-70
2023/04/06 00:34:37;;;;;;;;;;;16.90;65.30;;;;;;5074442;28;1318;-70
2023/04/06 00:37:03;;;;;;;;;;;16.90;65.30;;;;;;5074238;28;1334;-68
2023/04/06 00:39:28;;;;;;;;;;;16.90;65.20;;;;;;5073233;28;875;-69
2023/04/06 00:41:54;;;;;;;;;;;16.90;65.20;;;;;;5077035;28;1166;-68
2023/04/06 00:44:20;;;;;;;;;;;16.90;65.20;;;;;;5077667;28;871;-69
2023/04/06 00:46:46;;;;;;;;;;;16.90;65.30;;;;;;5071553;28;1370;-70
2023/04/06 00:49:11;;;;;;;;;;;16.90;65.20;;;;;;5068622;28;1902;-70
2023/04/06 00:51:37;;;;;;;;;;;16.90;65.20;;;;;;5075934;28;804;-71
2023/04/06 00:54:02;;;;;;;;;;;16.90;65.20;;;;;;5070125;28;871;-70
2023/04/06 00:56:28;;;;;;;;;;;16.90;65.20;;;;;;5066364;28;1282;-71
2023/04/06 00:58:53;;;;;;;;;;;16.90;65.20;;;;;;5073028;28;870;-71
2023/04/06 01:01:19;;;;;;;;;;;16.90;65.20;;;;;;5070069;28;894;-71
2023/04/06 01:03:48;;;;;;;;;;;16.90;65.20;;;;;;5073742;28;793;-70
2023/04/06 01:06:14;;;;;;;;;;;16.90;65.20;;;;;;5067922;28;1219;-70
2023/04/06 01:08:39;;;;;;;;;;;16.90;65.20;;;;;;5070823;28;1977;-70
2023/04/06 01:11:05;;;;;;;;;;;16.90;65.20;;;;;;5072153;28;958;-69
2023/04/06 01:13:30;;;;;;;;;;;16.90;65.10;;;;;;5067847;28;1174;-70
2023/04/06 01:15:56;;;;;;;;;;;16.90;65.20;;;;;;5067792;28;1353;-70
2023/04/06 01:18:25;;;;;;;;;;;16.90;65.20;;;;;;5072315;28;1055;-71
2023/04/06 01:20:51;;;;;;;;;;;16.90;65.10;;;;;;5073265;28;982;-71
2023/04/06 01:23:16;;;;;;;;;;;16.90;65.10;;;;;;5073620;28;856;-68
2023/04/06 01:25:41;;;;;;;;;;;16.90;65.10;;;;;;5075623;28;1327;-69
2023/04/06 01:28:07;;;;;;;;;;;16.90;65.10;;;;;;5070071;28;2373;-69
2023/04/06 01:30:32;;;;;;;;;;;16.90;65.20;;;;;;5073780;28;819;-69
2023/04/06 01:32:58;;;;;;;;;;;16.90;65.10;;;;;;5068967;28;934;-69
2023/04/06 01:35:27;;;;;;;;;;;16.90;65.10;;;;;;5076743;28;1387;-69
2023/04/06 01:37:52;;;;;;;;;;;16.90;65.10;;;;;;5071339;28;1370;-68
2023/04/06 01:40:18;;;;;;;;;;;16.90;65.10;;;;;;5067238;28;832;-69
2023/04/06 01:42:43;;;;;;;;;;;16.90;65.10;;;;;;5067944;28;820;-68
2023/04/06 01:45:09;;;;;;;;;;;16.90;65.10;;;;;;5075030;28;1244;-69
2023/04/06 01:47:34;;;;;;;;;;;16.90;65.10;;;;;;5072234;28;1902;-69
2023/04/06 01:50:00;;;;;;;;;;;16.90;65.10;;;;;;5068240;28;1199;-69
2023/04/06 01:52:25;;;;;;;;;;;16.90;65.10;;;;;;5068437;28;873;-69
2023/04/06 01:54:51;;;;;;;;;;;16.90;65.10;;;;;;5069249;28;1307;-69
2023/04/06 01:57:16;;;;;;;;;;;16.90;65.10;;;;;;5068190;28;819;-69
2023/04/06 01:59:42;;;;;;;;;;;16.90;65.10;;;;;;5065556;28;907;-69
2023/04/06 02:02:07;;;;;;;;;;;16.90;65.10;;;;;;5074856;28;808;-69
2023/04/06 02:04:33;;;;;;;;;;;16.90;65.10;;;;;;5074577;28;1255;-68
2023/04/06 02:06:58;;;;;;;;;;;16.90;65.10;;;;;;5081150;28;1905;-69
2023/04/06 02:09:24;;;;;;;;;;;16.90;65.10;;;;;;5076530;28;876;-69
2023/04/06 02:11:49;;;;;;;;;;;16.90;65.10;;;;;;5075192;28;890;-71
2023/04/06 02:14:15;;;;;;;;;;;16.90;65.10;;;;;;5074120;28;814;-71
2023/04/06 02:16:41;;;;;;;;;;;16.90;65.10;;;;;;5073317;28;1276;-70
2023/04/06 02:19:06;;;;;;;;;;;16.90;65.10;;;;;;5077577;28;870;-70
2023/04/06 02:21:32;;;;;;;;;;;16.90;65.10;;;;;;5061398;28;823;-71
2023/04/06 02:23:57;;;;;;;;;;;16.90;65.10;;;;;;5073246;28;935;-71
2023/04/06 02:26:23;;;;;;;;;;;16.90;65.10;;;;;;5074284;28;1353;-73
2023/04/06 02:28:48;;;;;;;;;;;16.90;65.10;;;;;;5076803;28;1917;-73
2023/04/06 02:31:15;;;;;;;;;;;16.90;65.10;;;;;;5077079;28;847;-73
2023/04/06 02:33:41;;;;;;;;;;;16.90;65.10;;;;;;5077222;28;859;-74
2023/04/06 02:36:06;;;;;;;;;;;16.90;65.10;;;;;;5075813;28;1260;-74
2023/04/06 02:38:32;;;;;;;;;;;16.90;65.10;;;;;;5075276;28;1071;-73
2023/04/06 02:40:57;;;;;;;;;;;16.90;65.10;;;;;;5077046;28;884;-73
2023/04/06 02:43:23;;;;;;;;;;;16.90;65.10;;;;;;5079207;28;871;-73
2023/04/06 02:45:48;;;;;;;;;;;16.90;65.10;;;;;;5070548;28;1349;-72
2023/04/06 02:48:14;;;;;;;;;;;16.90;65.10;;;;;;5074004;28;1965;-73
2023/04/06 02:50:40;;;;;;;;;;;16.90;65.10;;;;;;5075597;28;894;-73
2023/04/06 02:53:05;;;;;;;;;;;16.90;65.10;;;;;;5076666;28;844;-73
2023/04/06 02:55:31;;;;;;;;;;;16.90;65.10;;;;;;5078437;28;1262;-72
2023/04/06 02:57:56;;;;;;;;;;;16.90;65.10;;;;;;5073857;28;939;-73
2023/04/06 03:00:22;;;;;;;;;;;16.90;65.10;;;;;;5076705;28;1665;-73
2023/04/06 03:02:47;;;;;;;;;;;16.90;65.10;;;;;;5071485;28;891;-72
2023/04/06 03:05:13;;;;;;;;;;;16.90;65.10;;;;;;5074003;28;1353;-73
2023/04/06 03:07:38;;;;;;;;;;;16.90;65.20;;;;;;5077861;28;1971;-73
2023/04/06 03:10:04;;;;;;;;;;;16.90;65.10;;;;;;5071672;28;874;-70
2023/04/06 03:12:29;;;;;;;;;;;16.90;65.10;;;;;;5070419;28;855;-69
2023/04/06 03:14:55;;;;;;;;;;;16.90;65.10;;;;;;5073871;28;1249;-70
2023/04/06 03:17:20;;;;;;;;;;;16.90;65.10;;;;;;5075483;28;901;-70
2023/04/06 03:19:46;;;;;;;;;;;16.90;65.10;;;;;;5071475;28;921;-69
2023/04/06 03:22:11;;;;;;;;;;;16.90;65.10;;;;;;5071796;28;1289;-70
2023/04/06 03:24:37;;;;;;;;;;;16.90;65.10;;;;;;5072318;28;1260;-70
2023/04/06 03:27:02;;;;;;;;;;;16.90;65.10;;;;;;5072229;28;1914;-71
2023/04/06 03:29:28;;;;;;;;;;;16.90;65.10;;;;;;5074349;28;884;-71
2023/04/06 03:31:53;;;;;;;;;;;16.90;65.10;;;;;;5075932;28;882;-71
2023/04/06 03:34:19;;;;;;;;;;;16.90;65.10;;;;;;5072303;28;891;-71
2023/04/06 03:36:45;;;;;;;;;;;16.90;65.10;;;;;;5069340;28;1357;-71
2023/04/06 03:39:10;;;;;;;;;;;16.90;65.10;;;;;;5071838;28;1331;-71
2023/04/06 03:41:36;;;;;;;;;;;16.90;65.10;;;;;;5075034;28;865;-69
2023/04/06 03:44:01;;;;;;;;;;;16.90;65.10;;;;;;5080430;28;828;-72
2023/04/06 03:46:27;;;;;;;;;;;16.90;65.10;;;;;;5073892;28;1259;-72
2023/04/06 03:48:52;;;;;;;;;;;16.90;65.10;;;;;;5059258;28;1956;-71
2023/04/06 03:51:18;;;;;;;;;;;16.90;65.10;;;;;;5074533;28;791;-71
2023/04/06 03:53:43;;;;;;;;;;;16.90;65.10;;;;;;5075608;28;822;-70
2023/04/06 03:56:09;;;;;;;;;;;16.90;65.10;;;;;;5071732;28;1315;-69
2023/04/06 03:58:35;;;;;;;;;;;16.90;65.10;;;;;;5073304;28;852;-70
2023/04/06 04:01:00;;;;;;;;;;;16.90;65.10;;;;;;5071934;28;934;-70
2023/04/06 04:03:27;;;;;;;;;;;16.90;65.10;;;;;;5073610;28;816;-71
2023/04/06 04:05:53;;;;;;;;;;;16.90;65.10;;;;;;5074213;28;1313;-71
2023/04/06 04:08:18;;;;;;;;;;;16.90;65.10;;;;;;5072663;28;1906;-72
2023/04/06 04:10:44;;;;;;;;;;;16.90;65.10;;;;;;5073415;28;948;-71
2023/04/06 04:13:09;;;;;;;;;;;17.00;65.10;;;;;;5073015;28;1331;-71
2023/04/06 04:15:35;;;;;;;;;;;17.00;65.00;;;;;;5071789;28;1262;-72
2023/04/06 04:18:00;;;;;;;;;;;17.00;64.90;;;;;;5074202;28;971;-70
2023/04/06 04:20:26;;;;;;;;;;;17.00;64.80;;;;;;5073849;28;807;-70
2023/04/06 04:22:51;;;;;;;;;;;17.00;64.70;;;;;;5073309;28;1006;-71
2023/04/06 04:25:17;;;;;;;;;;;17.10;64.60;;;;;;5075383;28;1235;-69
2023/04/06 04:27:42;;;;;;;;;;;17.10;64.50;;;;;;5075068;28;1967;-72
2023/04/06 04:30:08;;;;;;;;;;;17.20;64.40;;;;;;5071510;28;816;-70
2023/04/06 04:32:33;;;;;;;;;;;17.20;64.30;;;;;;5073718;28;966;-70
2023/04/06 04:34:59;;;;;;;;;;;17.20;64.20;;;;;;5070485;28;1232;-71
2023/04/06 04:37:25;;;;;;;;;;;17.20;64.00;;;;;;5070756;28;1216;-70
2023/04/06 04:39:50;;;;;;;;;;;17.30;64.00;;;;;;5074586;28;1227;-70
2023/04/06 04:42:16;;;;;;;;;;;17.30;63.80;;;;;;5073287;28;836;-69
2023/04/06 04:44:41;;;;;;;;;;;17.30;63.80;;;;;;5073792;28;1260;-70
2023/04/06 04:47:07;;;;;;;;;;;17.30;63.70;;;;;;5075980;28;1926;-70
2023/04/06 04:49:32;;;;;;;;;;;17.30;63.60;;;;;;5056198;28;1261;-69
2023/04/06 04:51:58;;;;;;;;;;;17.40;63.60;;;;;;5066116;28;1698;-69
2023/04/06 04:54:23;;;;;;;;;;;17.40;63.50;;;;;;5065220;28;2107;-71
2023/04/06 04:56:50;;;;;;;;;;;17.40;63.50;;;;;;5070068;28;1260;-70
2023/04/06 04:59:16;;;;;;;;;;;17.40;63.40;;;;;;5068659;28;990;-70
2023/04/06 05:01:41;;;;;;;;;;;17.40;63.30;;;;;;5068874;28;895;-70
2023/04/06 05:04:07;;;;;;;;;;;17.40;63.30;;;;;;5069987;28;815;-71
2023/04/06 05:06:32;;;;;;;;;;;17.50;63.40;;;;;;5071698;28;1362;-67
2023/04/06 05:08:58;;;;;;;;;;;17.50;63.30;;;;;;5053677;28;1930;-67
2023/04/06 05:11:23;;;;;;;;;;;17.40;63.20;;;;;;5069080;28;908;-66
2023/04/06 05:13:49;;;;;;;;;;;17.50;63.20;;;;;;5065306;28;1000;-66
2023/04/06 05:16:14;;;;;;;;;;;17.50;63.20;;;;;;5068207;28;1282;-67
2023/04/06 05:18:40;;;;;;;;;;;17.50;63.20;;;;;;5071183;28;848;-67
2023/04/06 05:21:06;;;;;;;;;;;17.50;63.20;;;;;;5076316;28;867;-68
2023/04/06 05:23:31;;;;;;;;;;;17.50;63.10;;;;;;5074235;28;923;-67
2023/04/06 05:25:57;;;;;;;;;;;17.50;63.10;;;;;;5065045;28;1302;-67
2023/04/06 05:28:22;;;;;;;;;;;17.50;63.10;;;;;;5072102;28;1914;-66
2023/04/06 05:30:48;;;;;;;;;;;17.50;63.10;;;;;;5072055;28;928;-67
2023/04/06 05:33:13;;;;;;;;;;;17.50;63.10;;;;;;5073451;28;891;-68
2023/04/06 05:35:39;;;;;;;;;;;17.50;63.10;;;;;;5070800;28;1252;-70
2023/04/06 05:38:07;;;;;;;;;;;17.50;63.10;;;;;;5074984;28;1490;-67
2023/04/06 05:40:32;;;;;;;;;;;17.50;63.10;;;;;;5060290;28;1236;-67
2023/04/06 05:42:58;;;;;;;;;;;17.50;63.10;;;;;;5075848;28;915;-68
2023/04/06 05:45:23;;;;;;;;;;;17.50;63.10;;;;;;5070661;28;1254;-71
2023/04/06 05:47:48;;;;;;;;;;;17.50;63.10;;;;;;5071187;28;1905;-67
2023/04/06 05:50:14;;;;;;;;;;;17.50;63.10;;;;;;5075855;28;895;-67
2023/04/06 05:52:42;;;;;;;;;;;17.50;63.10;;;;;;5078641;28;922;-66
2023/04/06 05:55:08;;;;;;;;;;;17.50;63.20;;;;;;5073011;28;1359;-66
2023/04/06 05:57:34;;;;;;;;;;;17.50;63.20;;;;;;5076619;28;903;-69
2023/04/06 05:59:59;;;;;;;;;;;17.50;63.20;;;;;;5079364;28;931;-68
2023/04/06 06:02:25;;;;;;;;;;;17.50;63.20;;;;;;5070672;28;1284;-71
2023/04/06 06:04:51;;;;;;;;;;;17.50;63.20;;;;;;5076625;28;1247;-70
2023/04/06 06:07:16;;;;;;;;;;;17.50;63.30;;;;;;5074675;28;1887;-70
2023/04/06 06:09:42;;;;;;;;;;;17.50;63.20;;;;;;5076571;28;894;-70
2023/04/06 06:12:07;;;;;;;;;;;17.50;63.30;;;;;;5076864;28;1013;-69
2023/04/06 06:14:33;;;;;;;;;;;17.50;63.30;;;;;;5074356;28;819;-71
2023/04/06 06:16:59;;;;;;;;;;;17.50;63.30;;;;;;5076329;28;1703;-68
2023/04/06 06:19:24;;;;;;;;;;;17.40;63.30;;;;;;5078959;28;1024;-69
2023/04/06 06:21:50;;;;;;;;;;;17.40;63.30;;;;;;5078012;28;943;-67
2023/04/06 06:24:15;;;;;;;;;;;17.40;63.30;;;;;;5078865;28;934;-68
2023/04/06 06:26:41;;;;;;;;;;;17.40;63.40;;;;;;5072984;28;1240;-67
2023/04/06 06:29:06;;;;;;;;;;;17.40;63.40;;;;;;5074940;28;1953;-68
2023/04/06 06:31:32;;;;;;;;;;;17.40;63.40;;;;;;5075017;28;847;-67
2023/04/06 06:33:58;;;;;;;;;;;17.40;63.40;;;;;;5072554;28;891;-67
2023/04/06 06:36:23;;;;;;;;;;;17.40;63.40;;;;;;5072432;28;1377;-67
2023/04/06 06:38:49;;;;;;;;;;;17.40;63.40;;;;;;5076104;28;1187;-66
2023/04/06 06:41:15;;;;;;;;;;;17.40;63.50;;;;;;5076339;28;831;-67
2023/04/06 06:43:40;;;;;;;;;;;17.40;63.50;;;;;;5082285;28;868;-68
2023/04/06 06:46:06;;;;;;;;;;;17.40;63.50;;;;;;5079409;28;1427;-69
2023/04/06 06:48:32;;;;;;;;;;;17.40;63.50;;;;;;5080237;28;1943;-70
2023/04/06 06:50:57;;;;;;;;;;;17.40;63.60;;;;;;5075548;28;1371;-68
2023/04/06 06:53:23;;;;;;;;;;;17.40;63.60;;;;;;5076613;28;902;-68
2023/04/06 06:55:48;;;;;;;;;;;17.40;63.60;;;;;;5072904;28;1287;-68
2023/04/06 06:58:14;;;;;;;;;;;17.40;63.60;;;;;;5072561;28;848;-68
2023/04/06 07:00:39;;;;;;;;;;;17.40;63.60;;;;;;5075034;28;903;-71
2023/04/06 07:03:05;;;;;;;;;;;17.40;63.60;;;;;;5074806;28;868;-72
2023/04/06 07:05:30;;;;;;;;;;;17.40;63.60;;;;;;5071514;28;1272;-72
2023/04/06 07:07:56;;;;;;;;;;;17.40;63.60;;;;;;5074390;28;1914;-72
2023/04/06 07:10:22;;;;;;;;;;;17.40;63.60;;;;;;5077349;28;887;-71
2023/04/06 07:12:47;;;;;;;;;;;17.40;63.70;;;;;;5079648;28;896;-71
2023/04/06 07:15:13;;;;;;;;;;;17.40;63.70;;;;;;5075661;28;1252;-70
2023/04/06 07:17:41;;;;;;;;;;;17.40;63.70;;;;;;5076030;28;851;-69
2023/04/06 07:20:06;;;;;;;;;;;17.40;63.70;;;;;;5075374;28;899;-69
2023/04/06 07:22:32;;;;;;;;;;;17.40;63.70;;;;;;5065764;28;1231;-70
2023/04/06 07:24:57;;;;;;;;;;;17.40;63.80;;;;;;5080161;28;1272;-70
2023/04/06 07:27:23;;;;;;;;;;;17.30;63.70;;;;;;5074850;28;1899;-70
2023/04/06 07:29:48;;;;;;;;;;;17.30;63.70;;;;;;5069489;28;878;-67
2023/04/06 07:32:14;;;;;;;;;;;17.30;63.70;;;;;;5072395;28;831;-67
2023/04/06 07:34:40;;;;;;;;;;;17.30;63.70;;;;;;5073600;28;1354;-68
2023/04/06 07:37:05;;;;;;;;;;;17.30;63.70;;;;;;5075311;28;1471;-68
2023/04/06 07:39:31;;;;;;;;;;;17.30;63.70;;;;;;5073903;28;871;-68
2023/04/06 07:41:56;;;;;;;;;;;17.30;63.70;;;;;;5071640;28;883;-70
2023/04/06 07:44:22;;;;;;;;;;;17.30;63.80;;;;;;5074441;28;837;-68
2023/04/06 07:46:47;;;;;;;;;;;17.30;63.80;;;;;;5075717;28;1259;-73
2023/04/06 07:49:13;;;;;;;;;;;17.30;63.80;;;;;;5080176;28;1902;-72
2023/04/06 07:51:38;;;;;;;;;;;17.30;63.80;;;;;;5074192;28;824;-68
2023/04/06 07:54:04;;;;;;;;;;;17.30;63.90;;;;;;5074961;28;846;-69
2023/04/06 07:56:29;;;;;;;;;;;17.30;63.90;;;;;;5068926;28;1967;-69
2023/04/06 07:58:58;;;;;;;;;;;17.30;63.80;;;;;;5060879;28;1555;-68
2023/04/06 08:01:24;;;;;;;;;;;17.40;63.90;;;;;;5076691;28;899;-70
2023/04/06 08:03:50;;;;;;;;;;;17.40;63.90;;;;;;5074065;28;870;-70
2023/04/06 08:06:15;;;;;;;;;;;17.40;63.80;;;;;;5073438;28;1260;-70
2023/04/06 08:08:41;;;;;;;;;;;17.40;63.70;;;;;;5074353;28;1906;-69
2023/04/06 08:11:07;;;;;;;;;;;17.40;63.70;;;;;;5075989;28;958;-69
2023/04/06 08:13:33;;;;;;;;;;;17.40;63.60;;;;;;5077273;28;912;-69
2023/04/06 08:15:58;;;;;;;;;;;17.40;63.60;;;;;;5073911;28;1322;-69
2023/04/06 08:18:24;;;;;;;;;;;17.40;63.50;;;;;;5073245;28;875;-69
2023/04/06 08:20:49;;;;;;;;;;;17.50;63.60;;;;;;5073601;28;988;-69
2023/04/06 08:23:15;;;;;;;;;;;17.50;63.60;;;;;;5073738;28;1289;-69
2023/04/06 08:25:41;;;;;;;;;;;17.40;63.40;;;;;;5074984;28;1266;-68
2023/04/06 08:28:08;;;;;;;;;;;17.50;63.50;;;;;;5071390;28;1918;-69
2023/04/06 08:30:34;;;;;;;;;;;17.50;63.50;;;;;;5074140;28;845;-69
2023/04/06 08:32:59;;;;;;;;;;;17.50;63.50;;;;;;5075706;28;1217;-69
2023/04/06 08:35:25;;;;;;;;;;;17.50;63.50;;;;;;5076092;28;1284;-68
2023/04/06 08:37:51;;;;;;;;;;;17.50;63.50;;;;;;5076190;28;1453;-69
2023/04/06 08:40:16;;;;;;;;;;;17.40;63.40;;;;;;5071443;28;922;-69
2023/04/06 08:42:44;;;;;;;;;;;17.50;63.50;;;;;;5072700;28;892;-69
2023/04/06 08:45:10;;;;;;;;;;;17.50;63.50;;;;;;5072923;28;1374;-69
2023/04/06 08:47:38;;;;;;;;;;;17.50;63.60;;;;;;5077465;28;1902;-69
2023/04/06 08:50:04;;;;;;;;;;;17.50;63.50;;;;;;5069834;28;2166;-69
2023/04/06 08:52:29;;;;;;;;;;;17.50;63.60;;;;;;5072376;28;1916;-69
2023/04/06 08:54:55;;;;;;;;;;;17.50;63.50;;;;;;5077273;28;1465;-69
2023/04/06 08:57:20;;;;;;;;;;;17.50;63.60;;;;;;5073448;28;1304;-69
2023/04/06 08:59:46;;;;;;;;;;;17.50;63.60;;;;;;5056710;28;1458;-69
2023/04/06 09:02:13;;;;;;;;;;;17.40;63.50;;;;;;5067770;28;1454;-69
2023/04/06 09:04:39;;;;;;;;;;;17.40;63.50;;;;;;5056878;28;1266;-69
2023/04/06 09:07:04;;;;;;;;;;;17.40;63.50;;;;;;5072020;28;838;-69
2023/04/06 09:09:30;;;;;;;;;;;17.40;63.50;;;;;;5060415;28;1894;-69
2023/04/06 09:11:55;;;;;;;;;;;17.40;63.50;;;;;;5075744;28;2025;-69
2023/04/06 09:14:37;;;;;;;;;;;17.40;63.60;;;;;;5070210;28;1242;-69
2023/04/06 09:17:02;;;;;;;;;;;17.40;63.60;;;;;;5073359;28;878;-69
2023/04/06 09:19:28;;;;;;;;;;;17.40;63.60;;;;;;5073658;28;907;-69
2023/04/06 09:22:08;;;;;;;;;;;17.40;63.60;;;;;;5074487;28;906;-68
2023/04/06 09:24:41;;;;;;;;;;;17.40;63.70;;;;;;5076028;28;911;-69
2023/04/06 09:27:07;;;;;;;;;;;17.40;63.70;;;;;;5071146;28;887;-69
2023/04/06 09:29:33;;;;;;;;;;;17.40;63.80;;;;;;5057615;28;1949;-69
2023/04/06 09:32:02;;;;;;;;;;;17.40;63.80;;;;;;5072604;28;871;-68
2023/04/06 09:34:27;;;;;;;;;;;17.40;63.80;;;;;;5058567;28;815;-69
2023/04/06 09:36:53;;;;;;;;;;;17.40;63.80;;;;;;5073047;28;1428;-69
2023/04/06 09:39:20;;;;;;;;;;;17.30;63.80;;;;;;5071920;28;990;-69
2023/04/06 09:41:48;;;;;;;;;;;17.30;63.80;;;;;;5070347;28;880;-69
2023/04/06 09:44:14;;;;;;;;;;;17.30;63.90;;;;;;5075485;28;851;-69
2023/04/06 09:46:40;;;;;;;;;;;17.30;64.10;;;;;;5078800;28;1337;-69
2023/04/06 09:49:06;;;;;;;;;;;17.30;64.00;;;;;;5070695;28;1902;-69
2023/04/06 09:51:36;;;;;;;;;;;17.30;64.00;;;;;;5073504;28;1405;-69
2023/04/06 09:54:02;;;;;;;;;;;17.30;64.00;;;;;;5070903;28;883;-69
2023/04/06 09:56:28;;;;;;;;;;;17.30;64.10;;;;;;5056460;28;1203;-70
2023/04/06 09:58:56;;;;;;;;;;;17.30;64.10;;;;;;5071683;28;883;-69
2023/04/06 10:01:23;;;;;;;;;;;17.30;64.10;;;;;;5071963;28;797;-69
2023/04/06 10:04:01;;;;;;;;;;;17.30;64.10;;;;;;5075149;28;950;-69
2023/04/06 10:06:27;;;;;;;;;;;17.30;64.20;;;;;;5071261;28;1349;-69
2023/04/06 10:08:54;;;;;;;;;;;17.30;64.20;;;;;;5064188;28;1902;-69
2023/04/06 10:11:19;;;;;;;;;;;17.30;64.20;;;;;;5073472;28;899;-69
2023/04/06 10:13:47;;;;;;;;;;;17.20;64.20;;;;;;5076657;28;863;-69
2023/04/06 10:16:13;;;;;;;;;;;17.20;64.20;;;;;;5077075;28;1244;-69
2023/04/06 10:18:39;;;;;;;;;;;17.30;64.30;;;;;;5071186;28;878;-69
2023/04/06 10:21:06;;;;;;;;;;;17.20;64.30;;;;;;5069312;28;925;-69
2023/04/06 10:23:31;;;;;;;;;;;17.20;64.30;;;;;;5075697;28;820;-69
2023/04/06 10:25:58;;;;;;;;;;;17.20;64.30;;;;;;5069670;28;1282;-69
2023/04/06 10:28:23;;;;;;;;;;;17.20;64.30;;;;;;5075699;28;1978;-69
2023/04/06 10:30:49;;;;;;;;;;;17.20;64.30;;;;;;5074881;28;855;-69
2023/04/06 10:33:19;;;;;;;;;;;17.20;64.40;;;;;;5081796;28;863;-69
2023/04/06 10:35:44;;;;;;;;;;;17.20;64.40;;;;;;5079361;28;1359;-69
2023/04/06 10:38:11;;;;;;;;;;;17.20;64.40;;;;;;5072575;28;1495;-69
2023/04/06 10:40:37;;;;;;;;;;;17.20;64.40;;;;;;5068400;28;784;-69
2023/04/06 10:43:10;;;;;;;;;;;17.20;64.50;;;;;;5073288;28;952;-69
2023/04/06 10:45:35;;;;;;;;;;;17.20;64.50;;;;;;5074796;28;1290;-69
2023/04/06 10:48:01;;;;;;;;;;;17.20;64.50;;;;;;5076161;28;1897;-69
2023/04/06 10:50:26;;;;;;;;;;;17.20;64.50;;;;;;5074257;28;898;-69
2023/04/06 10:52:58;;;;;;;;;;;17.20;64.50;;;;;;5074086;28;950;-69
2023/04/06 10:55:24;;;;;;;;;;;17.20;64.50;;;;;;5072349;28;1253;-69
2023/04/06 10:57:49;;;;;;;;;;;17.10;64.50;;;;;;5063694;28;924;-69
2023/04/06 11:00:15;;;;;;;;;;;17.20;64.60;;;;;;5078734;28;855;-69
2023/04/06 11:02:41;;;;;;;;;;;17.20;64.70;;;;;;5072167;28;1249;-69
2023/04/06 11:05:07;;;;;;;;;;;17.20;64.70;;;;;;5074747;28;1251;-69
2023/04/06 11:07:32;;;;;;;;;;;17.20;64.70;;;;;;5070504;28;1937;-69
2023/04/06 11:09:58;;;;;;;;;;;17.10;64.60;;;;;;5074800;28;817;-69
2023/04/06 11:12:24;;;;;;;;;;;17.10;64.70;;;;;;5077730;28;858;-69
2023/04/06 11:15:08;;;;;;;;;;;17.10;64.70;;;;;;5072673;28;1287;-69
2023/04/06 11:17:35;;;;;;;;;;;17.10;64.70;;;;;;5073537;28;887;-69
2023/04/06 11:20:01;;;;;;;;;;;17.10;65.50;;;;;;5071001;28;1175;-69
2023/04/06 11:22:26;;;;;;;;;;;17.10;64.70;;;;;;5071357;28;887;-69
2023/04/06 11:24:52;;;;;;;;;;;17.10;64.70;;;;;;5065918;28;1462;-69
2023/04/06 11:27:18;;;;;;;;;;;17.10;64.70;;;;;;5075623;28;1969;-69
2023/04/06 11:29:45;;;;;;;;;;;17.10;64.80;;;;;;5072070;28;1993;-69
2023/04/06 11:32:11;;;;;;;;;;;17.10;64.80;;;;;;5075442;28;1363;-69
2023/04/06 11:34:38;;;;;;;;;;;17.10;64.80;;;;;;5073068;28;2187;-68
2023/04/06 11:37:07;;;;;;;;;;;17.10;64.80;;;;;;5074579;28;1493;-70
2023/04/06 11:39:37;;;;;;;;;;;17.10;64.80;;;;;;5075940;28;1573;-69
2023/04/06 11:42:02;;;;;;;;;;;17.10;64.80;;;;;;5071793;28;827;-70
2023/04/06 11:44:32;;;;;;;;;;;17.10;64.90;;;;;;5076541;28;815;-70
2023/04/06 11:46:58;;;;;;;;;;;17.10;64.80;;;;;;5077801;28;1310;-70
2023/04/06 11:49:30;;;;;;;;;;;17.10;64.90;;;;;;5079824;28;1957;-69
2023/04/06 11:51:55;;;;;;;;;;;17.10;64.90;;;;;;5082570;28;923;-69
2023/04/06 11:54:31;;;;;;;;;;;17.00;64.90;;;;;;5078550;28;808;-70
2023/04/06 11:56:56;;;;;;;;;;;17.00;64.90;;;;;;5073276;28;1868;-70
2023/04/06 11:59:22;;;;;;;;;;;17.10;65.00;;;;;;5071758;28;851;-70
2023/04/06 12:01:48;;;;;;;;;;;17.10;65.00;;;;;;5071664;28;954;-69
2023/04/06 12:04:13;;;;;;;;;;;17.10;65.00;;;;;;5071463;28;871;-71
2023/04/06 12:06:39;;;;;;;;;;;17.00;64.90;;;;;;5072837;28;2111;-70
2023/04/06 12:09:04;;;;;;;;;;;17.00;64.90;;;;;;5074488;28;1977;-70
2023/04/06 12:11:30;;;;;;;;;;;17.00;65.00;;;;;;5070304;28;1542;-70
2023/04/06 12:13:55;;;;;;;;;;;17.00;65.00;;;;;;5074249;28;1301;-70
2023/04/06 12:16:21;;;;;;;;;;;17.00;65.00;;;;;;5075174;28;1221;-70
2023/04/06 12:18:46;;;;;;;;;;;17.00;65.00;;;;;;5074984;28;863;-70
2023/04/06 12:21:12;;;;;;;;;;;17.00;65.00;;;;;;5074764;28;875;-70
2023/04/06 12:23:37;;;;;;;;;;;17.00;65.00;;;;;;5078444;28;895;-70
2023/04/06 12:26:03;;;;;;;;;;;17.00;65.00;;;;;;5074822;28;1280;-70
2023/04/06 12:28:28;;;;;;;;;;;17.00;65.00;;;;;;5072113;28;1953;-70
2023/04/06 12:30:54;;;;;;;;;;;17.00;65.00;;;;;;5074814;28;835;-70
2023/04/06 12:33:20;;;;;;;;;;;17.00;65.10;;;;;;5069767;28;1228;-70
2023/04/06 12:35:46;;;;;;;;;;;17.00;65.00;;;;;;5075508;28;1274;-70
2023/04/06 12:38:11;;;;;;;;;;;17.00;65.80;;;;;;5071813;28;2135;-70
2023/04/06 12:40:38;;;;;;;;;;;17.00;65.10;;;;;;5076272;28;1317;-71
2023/04/06 12:43:03;;;;;;;;;;;17.00;65.10;;;;;;5073557;28;1352;-70
2023/04/06 12:45:30;;;;;;;;;;;17.00;65.10;;;;;;5070177;28;1360;-70
2023/04/06 12:47:55;;;;;;;;;;;17.00;65.10;;;;;;5073082;28;1910;-70
2023/04/06 12:50:21;;;;;;;;;;;17.00;65.10;;;;;;5073298;28;1369;-69
2023/04/06 12:52:47;;;;;;;;;;;17.00;65.10;;;;;;5067573;28;1022;-69
2023/04/06 12:55:12;;;;;;;;;;;17.00;65.10;;;;;;5070159;28;1277;-70
2023/04/06 12:57:38;;;;;;;;;;;17.00;65.10;;;;;;5074613;28;926;-69
2023/04/06 13:00:04;;;;;;;;;;;17.00;65.10;;;;;;5071497;28;879;-70
2023/04/06 13:02:30;;;;;;;;;;;17.00;65.20;;;;;;5070562;28;1141;-70
2023/04/06 13:04:55;;;;;;;;;;;17.00;65.20;;;;;;5074987;28;1334;-68
2023/04/06 13:07:21;;;;;;;;;;;17.00;65.20;;;;;;5068941;28;1902;-68
2023/04/06 13:09:49;;;;;;;;;;;17.00;65.20;;;;;;5070474;28;1121;-68
2023/04/06 13:12:15;;;;;;;;;;;17.00;65.20;;;;;;5076111;28;827;-68
2023/04/06 13:14:40;;;;;;;;;;;17.00;65.20;;;;;;5069554;28;1275;-69
2023/04/06 13:17:06;;;;;;;;;;;17.00;65.20;;;;;;5071029;28;1973;-68
2023/04/06 13:19:32;;;;;;;;;;;17.00;65.20;;;;;;5076624;28;1330;-69
2023/04/06 13:21:57;;;;;;;;;;;17.00;65.20;;;;;;5070208;28;923;-69
2023/04/06 13:24:23;;;;;;;;;;;17.00;65.20;;;;;;5066941;28;919;-69
2023/04/06 13:26:49;;;;;;;;;;;17.00;65.20;;;;;;5069641;28;1690;-69
2023/04/06 13:29:14;;;;;;;;;;;17.00;65.30;;;;;;5074907;28;1910;-70
2023/04/06 13:31:40;;;;;;;;;;;17.00;65.30;;;;;;5076195;28;947;-70
2023/04/06 13:34:06;;;;;;;;;;;17.00;65.20;;;;;;5068597;28;874;-70
2023/04/06 13:36:32;;;;;;;;;;;17.00;65.20;;;;;;5068744;28;1248;-69
2023/04/06 13:38:57;;;;;;;;;;;17.00;65.30;;;;;;5072428;28;1608;-69
2023/04/06 13:41:23;;;;;;;;;;;16.90;65.20;;;;;;5074437;28;1030;-69
2023/04/06 13:43:49;;;;;;;;;;;17.00;65.30;;;;;;5080076;28;894;-69
2023/04/06 13:46:15;;;;;;;;;;;16.90;65.30;;;;;;5071109;28;1309;-69
2023/04/06 13:48:40;;;;;;;;;;;17.00;65.40;;;;;;5069555;28;1929;-70
2023/04/06 13:51:12;;;;;;;;;;;17.00;65.30;;;;;;5074792;28;847;-69
2023/04/06 13:53:38;;;;;;;;;;;17.00;65.30;;;;;;5071983;28;879;-69
2023/04/06 13:56:04;;;;;;;;;;;16.90;65.30;;;;;;5058923;28;1274;-70
2023/04/06 13:58:30;;;;;;;;;;;16.90;65.40;;;;;;5068952;28;875;-70
2023/04/06 14:01:01;;;;;;;;;;;16.90;65.30;;;;;;5073640;28;1311;-70
2023/04/06 14:03:27;;;;;;;;;;;16.90;65.30;;;;;;5074584;28;895;-70
2023/04/06 14:05:52;;;;;;;;;;;16.90;65.40;;;;;;5075698;28;1267;-70
2023/04/06 14:08:18;;;;;;;;;;;16.90;66.10;;;;;;5080318;28;1954;-70
2023/04/06 14:10:43;;;;;;;;;;;16.90;65.40;;;;;;5075539;28;856;-70
2023/04/06 14:13:09;;;;;;;;;;;16.90;65.40;;;;;;5077067;28;887;-69
2023/04/06 14:15:35;;;;;;;;;;;16.90;65.40;;;;;;5075207;28;1283;-69
2023/04/06 14:18:01;;;;;;;;;;;16.90;65.40;;;;;;5076291;28;1393;-69
2023/04/06 14:20:26;;;;;;;;;;;16.90;65.40;;;;;;5074544;28;887;-70
2023/04/06 14:22:54;;;;;;;;;;;16.90;65.40;;;;;;5075031;28;884;-70
2023/04/06 14:25:19;;;;;;;;;;;16.90;65.40;;;;;;5071157;28;1335;-70
2023/04/06 14:27:45;;;;;;;;;;;16.90;65.40;;;;;;5076935;28;1949;-69